Time;durP1;ratioP1;P1;durP2;ratioP2;P2;SDS_P1;SDS_P2;PMS_P1;PMS_P2;Temp;Humidity;BMP_temperature;BMP_pressure;BME280_temperature;BME280_humidity;BME280_pressure;Samples;Min_cycle;Max_cycle;Signal;HPM_P1;HPM_P2
2023/01/28 00:01:15;;;;;;;33.65;14.80;;;;;;;;;;5030645;28;20129;-77
2023/01/28 00:03:41;;;;;;;30.80;14.45;;;;;;;;;;5033473;28;20041;-78
2023/01/28 00:06:08;;;;;;;29.63;13.55;;;;;;;;;;5031559;28;20029;-78
2023/01/28 00:08:33;;;;;;;29.50;14.38;;;;;;;;;;5020196;28;20116;-77
2023/01/28 00:11:02;;;;;;;31.67;14.57;;;;;;;;;;5030314;28;20159;-78
2023/01/28 00:13:28;;;;;;;29.33;14.98;;;;;;;;;;5030092;28;20041;-77
2023/01/28 00:15:57;;;;;;;34.22;16.65;;;;;;;;;;5024024;28;20057;-78
2023/01/28 00:18:24;;;;;;;30.60;14.50;;;;;;;;;;5025941;28;20037;-78
2023/01/28 00:20:59;;;;;;;32.83;14.68;;;;;;;;;;5031750;28;20082;-76
2023/01/28 00:23:25;;;;;;;33.17;15.32;;;;;;;;;;5030281;28;20112;-78
2023/01/28 00:25:50;;;;;;;;;;;;;;;;;;5027569;28;20029;-78
2023/01/28 00:28:16;;;;;;;31.05;12.57;;;;;;;;;;5031710;28;19913;-77
2023/01/28 00:30:41;;;;;;;34.60;15.70;;;;;;;;;;5030022;28;20051;-78
2023/01/28 00:33:06;;;;;;;31.70;15.20;;;;;;;;;;5031614;28;20034;-78
2023/01/28 00:35:32;;;;;;;33.85;15.07;;;;;;;;;;5032867;28;20352;-78
2023/01/28 00:37:59;;;;;;;33.35;15.23;;;;;;;;;;5027907;28;20381;-78
2023/01/28 00:40:26;;;;;;;33.70;16.35;;;;;;;;;;5030611;28;20036;-78
2023/01/28 00:42:53;;;;;;;28.10;13.35;;;;;;;;;;5026986;28;20428;-78
2023/01/28 00:45:19;;;;;;;32.65;13.75;;;;;;;;;;5031106;28;20033;-78
2023/01/28 00:47:47;;;;;;;;;;;;;;;;;;5030069;28;20037;-78
2023/01/28 00:50:12;;;;;;;30.70;14.68;;;;;;;;;;5013618;28;19912;-78
2023/01/28 00:52:38;;;;;;;32.58;14.18;;;;;;;;;;5032265;28;20037;-77
2023/01/28 00:55:03;;;;;;;31.80;14.30;;;;;;;;;;5037661;28;20064;-78
2023/01/28 00:57:29;;;;;;;31.30;14.35;;;;;;;;;;5030571;28;20044;-77
2023/01/28 00:59:54;;;;;;;30.08;14.30;;;;;;;;;;5030996;28;20043;-78
2023/01/28 01:02:20;;;;;;;31.00;13.82;;;;;;;;;;5029457;28;20167;-77
2023/01/28 01:04:57;;;;;;;29.45;13.32;;;;;;;;;;5029977;28;20871;-77
2023/01/28 01:07:31;;;;;;;35.22;15.27;;;;;;;;;;5046005;28;20041;-78
2023/01/28 01:10:02;;;;;;;30.45;13.52;;;;;;;;;;5030646;28;20485;-77
2023/01/28 01:12:28;;;;;;;29.83;14.55;;;;;;;;;;5013440;28;20128;-76
2023/01/28 01:14:53;;;;;;;28.17;13.93;;;;;;;;;;5024128;28;20108;-78
2023/01/28 01:17:20;;;;;;;31.15;14.32;;;;;;;;;;5027420;28;20390;-77
2023/01/28 01:19:45;;;;;;;32.80;14.75;;;;;;;;;;5029304;28;20048;-78
2023/01/28 01:22:11;;;;;;;37.17;15.60;;;;;;;;;;5030576;28;20037;-77
2023/01/28 01:24:36;;;;;;;32.72;14.55;;;;;;;;;;5030538;28;20112;-77
2023/01/28 01:27:02;;;;;;;29.48;14.43;;;;;;;;;;5045650;28;20123;-77
2023/01/28 01:29:28;;;;;;;28.77;13.30;;;;;;;;;;5038737;28;20037;-78
2023/01/28 01:31:54;;;;;;;;;;;;;;;;;;5048498;28;20096;-77
2023/01/28 01:34:19;;;;;;;32.35;14.65;;;;;;;;;;5033992;28;19909;-78
2023/01/28 01:36:47;;;;;;;32.05;14.95;;;;;;;;;;5029234;28;20100;-78
2023/01/28 01:39:13;;;;;;;36.30;15.70;;;;;;;;;;5030032;28;20021;-78
2023/01/28 01:41:39;;;;;;;;;;;;;;;;;;5030586;28;20061;-77
2023/01/28 01:44:04;;;;;;;32.65;15.20;;;;;;;;;;5030129;28;19909;-78
2023/01/28 01:46:37;;;;;;;32.20;15.70;;;;;;;;;;5009844;28;20057;-78
2023/01/28 01:49:22;;;;;;;35.42;15.52;;;;;;;;;;5012182;28;20053;-79
2023/01/28 01:51:49;;;;;;;32.20;14.57;;;;;;;;;;5012794;28;20033;-78
2023/01/28 01:54:15;;;;;;;34.33;15.02;;;;;;;;;;5023552;28;20026;-78
2023/01/28 01:56:41;;;;;;;30.58;13.65;;;;;;;;;;5025849;28;20041;-78
2023/01/28 01:59:08;;;;;;;35.42;14.82;;;;;;;;;;5016548;28;20033;-77
2023/01/28 02:01:34;;;;;;;31.92;14.50;;;;;;;;;;5033171;28;20048;-78
2023/01/28 02:04:03;;;;;;;34.45;14.60;;;;;;;;;;5036675;28;20563;-78
2023/01/28 02:06:28;;;;;;;37.00;15.93;;;;;;;;;;5032927;28;20175;-77
2023/01/28 02:08:56;;;;;;;35.08;15.23;;;;;;;;;;5032804;28;20108;-78
2023/01/28 02:11:22;;;;;;;38.67;16.33;;;;;;;;;;5032891;28;20526;-78
2023/01/28 02:13:48;;;;;;;33.92;16.00;;;;;;;;;;5016270;28;20395;-78
2023/01/28 02:16:14;;;;;;;34.22;15.02;;;;;;;;;;5031392;28;20457;-77
2023/01/28 02:18:39;;;;;;;37.80;15.77;;;;;;;;;;5032412;28;20119;-77
2023/01/28 02:21:34;;;;;;;37.47;16.17;;;;;;;;;;5016517;28;20057;-78
2023/01/28 02:24:19;;;;;;;37.80;16.95;;;;;;;;;;5049291;28;20037;-78
2023/01/28 02:27:00;;;;;;;36.47;15.32;;;;;;;;;;5035097;28;20038;-77
2023/01/28 02:29:36;;;;;;;35.10;15.93;;;;;;;;;;5026291;28;20511;-77
2023/01/28 02:32:21;;;;;;;39.70;16.48;;;;;;;;;;5039475;28;20038;-78
2023/01/28 02:35:10;;;;;;;42.42;17.55;;;;;;;;;;5032496;28;20064;-77
2023/01/28 02:37:54;;;;;;;36.65;16.27;;;;;;;;;;5046055;28;20053;-77
2023/01/28 02:40:24;;;;;;;38.72;16.70;;;;;;;;;;5033738;28;20032;-77
2023/01/28 02:42:49;;;;;;;39.90;17.40;;;;;;;;;;5012337;28;20053;-77
2023/01/28 02:45:22;;;;;;;39.35;16.58;;;;;;;;;;5009682;28;20077;-77
2023/01/28 02:47:57;;;;;;;37.13;15.48;;;;;;;;;;5020691;28;20090;-78
2023/01/28 02:50:24;;;;;;;33.78;15.30;;;;;;;;;;5016991;28;20124;-78
2023/01/28 02:55:36;;;;;;;38.03;16.00;;;;;;;;;;5033168;28;20094;-76
2023/01/28 02:58:20;;;;;;;35.20;15.70;;;;;;;;;;5032191;28;20044;-77
2023/01/28 03:01:00;;;;;;;36.05;15.75;;;;;;;;;;5032857;28;20034;-77
2023/01/28 03:03:40;;;;;;;33.65;14.05;;;;;;;;;;5032423;28;20107;-77
2023/01/28 03:06:06;;;;;;;34.58;14.80;;;;;;;;;;5025242;28;20500;-78
2023/01/28 03:36:52;;;;;;;38.30;16.20;;;;;;;;;;5035836;28;20044;-76
2023/01/28 03:39:36;;;;;;;43.33;16.67;;;;;;;;;;5031519;28;20448;-77
2023/01/28 03:42:04;;;;;;;42.70;17.52;;;;;;;;;;5014785;28;20524;-77
2023/01/28 03:47:13;;;;;;;43.60;18.05;;;;;;;;;;5030921;28;20033;-77
2023/01/28 03:49:40;;;;;;;45.65;18.20;;;;;;;;;;5031091;28;20481;-78
2023/01/28 03:52:06;;;;;;;43.67;18.02;;;;;;;;;;5031103;28;20040;-78
2023/01/28 03:54:32;;;;;;;41.13;17.50;;;;;;;;;;5042509;28;20014;-78
2023/01/28 03:56:58;;;;;;;44.33;17.80;;;;;;;;;;5047333;28;20790;-77
2023/01/28 03:59:23;;;;;;;43.47;18.20;;;;;;;;;;5031006;28;20056;-77
2023/01/28 04:01:50;;;;;;;41.45;17.75;;;;;;;;;;5047442;28;20492;-77
2023/01/28 04:04:23;;;;;;;;;;;;;;;;;;5048027;28;20056;-78
2023/01/28 04:06:52;;;;;;;46.67;18.63;;;;;;;;;;5042005;28;19952;-77
2023/01/28 04:09:23;;;;;;;43.90;17.67;;;;;;;;;;5030935;28;20025;-77
2023/01/28 04:11:56;;;;;;;42.08;17.70;;;;;;;;;;5030605;28;20044;-78
2023/01/28 04:14:29;;;;;;;42.35;16.63;;;;;;;;;;5052376;28;20132;-78
2023/01/28 04:17:09;;;;;;;43.08;17.60;;;;;;;;;;5018594;28;20080;-77
2023/01/28 04:19:36;;;;;;;43.15;17.40;;;;;;;;;;5036729;28;20037;-77
2023/01/28 04:22:03;;;;;;;41.45;17.17;;;;;;;;;;5040300;28;20435;-77
2023/01/28 04:24:29;;;;;;;43.13;17.75;;;;;;;;;;5030106;28;20038;-77
2023/01/28 04:26:55;;;;;;;37.30;16.58;;;;;;;;;;5046765;28;20040;-79
2023/01/28 04:29:20;;;;;;;45.65;18.13;;;;;;;;;;5030273;28;20534;-76
2023/01/28 04:31:48;;;;;;;47.20;18.70;;;;;;;;;;5047665;28;20021;-76
2023/01/28 04:34:19;;;;;;;38.05;16.75;;;;;;;;;;5030114;28;20037;-77
2023/01/28 04:36:52;;;;;;;37.13;16.02;;;;;;;;;;5046587;28;20404;-78
2023/01/28 04:39:43;;;;;;;49.35;19.13;;;;;;;;;;5016570;28;20037;-77
2023/01/28 04:42:18;;;;;;;49.42;19.30;;;;;;;;;;5035537;28;20037;-79
2023/01/28 04:45:10;;;;;;;45.10;17.92;;;;;;;;;;5030063;28;20040;-77
2023/01/28 04:47:56;;;;;;;43.80;18.40;;;;;;;;;;5036018;28;20056;-78
2023/01/28 04:50:31;;;;;;;44.50;18.83;;;;;;;;;;5014721;28;20048;-78
2023/01/28 04:53:06;;;;;;;45.00;18.48;;;;;;;;;;5046275;28;20053;-77
2023/01/28 04:55:49;;;;;;;47.55;18.88;;;;;;;;;;5007562;28;20029;-78
2023/01/28 04:58:14;;;;;;;48.80;18.65;;;;;;;;;;5046435;28;20036;-78
2023/01/28 05:00:42;;;;;;;46.08;18.20;;;;;;;;;;5013585;28;20025;-77
2023/01/28 05:03:08;;;;;;;45.75;19.52;;;;;;;;;;5028599;28;20091;-77
2023/01/28 05:05:33;;;;;;;44.97;18.45;;;;;;;;;;5039694;28;20030;-76
2023/01/28 05:08:14;;;;;;;41.95;17.60;;;;;;;;;;5015234;28;20044;-77
2023/01/28 05:10:39;;;;;;;45.92;18.65;;;;;;;;;;5009921;28;20404;-77
2023/01/28 05:13:05;;;;;;;46.03;18.10;;;;;;;;;;5044320;28;20049;-78
2023/01/28 05:15:30;;;;;;;40.95;16.80;;;;;;;;;;5037668;28;20030;-78
2023/01/28 05:17:56;;;;;;;39.85;17.48;;;;;;;;;;5027763;28;20473;-77
2023/01/28 05:20:22;;;;;;;44.25;18.30;;;;;;;;;;5029085;28;20030;-78
2023/01/28 05:22:48;;;;;;;49.25;19.60;;;;;;;;;;5025330;28;20025;-77
2023/01/28 05:25:18;;;;;;;46.53;19.27;;;;;;;;;;5049477;28;20037;-78
2023/01/28 05:27:53;;;;;;;47.75;19.67;;;;;;;;;;5048895;28;20090;-77
2023/01/28 05:30:19;;;;;;;43.85;18.35;;;;;;;;;;5046128;28;20029;-77
2023/01/28 05:32:45;;;;;;;48.95;20.42;;;;;;;;;;5031170;28;20044;-76
2023/01/28 05:35:12;;;;;;;49.72;19.13;;;;;;;;;;5029495;28;20416;-79
2023/01/28 05:37:37;;;;;;;49.97;19.48;;;;;;;;;;5046895;28;20025;-78
2023/01/28 05:40:28;;;;;;;50.65;20.65;;;;;;;;;;5030114;28;20491;-77
2023/01/28 05:42:55;;;;;;;53.72;19.77;;;;;;;;;;5013067;28;20112;-77
2023/01/28 05:45:55;;;;;;;46.58;18.95;;;;;;;;;;5008317;28;20397;-77
2023/01/28 05:48:27;;;;;;;47.65;18.73;;;;;;;;;;5021890;28;20055;-78
2023/01/28 05:51:16;;;;;;;45.63;18.48;;;;;;;;;;5026437;28;20400;-78
2023/01/28 05:53:44;;;;;;;50.03;19.58;;;;;;;;;;5045672;28;20044;-76
2023/01/28 05:56:10;;;;;;;41.97;18.73;;;;;;;;;;5045925;28;20029;-76
2023/01/28 05:58:37;;;;;;;46.97;19.48;;;;;;;;;;5026207;28;20126;-79
2023/01/28 06:01:03;;;;;;;42.08;18.45;;;;;;;;;;5009892;28;20033;-78
2023/01/28 06:03:39;;;;;;;42.25;18.45;;;;;;;;;;5044310;28;20440;-78
2023/01/28 06:06:05;;;;;;;41.53;18.13;;;;;;;;;;5039934;28;20095;-76
2023/01/28 06:08:30;;;;;;;45.72;18.50;;;;;;;;;;5035948;28;20412;-78
2023/01/28 06:10:57;;;;;;;45.55;18.48;;;;;;;;;;5044914;28;20037;-77
2023/01/28 06:13:23;;;;;;;45.42;18.92;;;;;;;;;;5029135;28;20033;-80
2023/01/28 06:16:15;;;;;;;46.97;18.42;;;;;;;;;;5021941;28;20050;-78
2023/01/28 06:18:56;;;;;;;46.13;18.60;;;;;;;;;;5049988;28;20025;-79
2023/01/28 06:21:22;;;;;;;46.67;19.63;;;;;;;;;;5002378;28;20033;-77
2023/01/28 06:23:48;;;;;;;46.20;19.17;;;;;;;;;;5028078;28;20159;-78
2023/01/28 06:26:14;;;;;;;47.83;18.65;;;;;;;;;;5024611;28;20072;-77
2023/01/28 06:28:42;;;;;;;51.03;21.77;;;;;;;;;;5043845;28;20021;-78
2023/01/28 06:31:08;;;;;;;50.28;20.70;;;;;;;;;;5029571;28;20060;-79
2023/01/28 06:33:33;;;;;;;50.60;20.67;;;;;;;;;;5029639;28;20493;-77
2023/01/28 06:36:01;;;;;;;55.35;22.13;;;;;;;;;;5029832;28;20488;-78
2023/01/28 06:38:26;;;;;;;54.38;20.13;;;;;;;;;;5047471;28;20105;-78
2023/01/28 06:40:54;;;;;;;54.38;21.85;;;;;;;;;;5041893;28;20174;-79
2023/01/28 06:43:20;;;;;;;58.17;21.25;;;;;;;;;;5046109;28;20036;-77
2023/01/28 06:45:45;;;;;;;54.75;20.35;;;;;;;;;;5033290;28;20492;-78
2023/01/28 06:48:11;;;;;;;56.80;21.67;;;;;;;;;;5033573;28;20030;-77
2023/01/28 06:50:36;;;;;;;51.45;20.45;;;;;;;;;;5037598;28;20033;-77
2023/01/28 06:53:02;;;;;;;60.92;23.05;;;;;;;;;;5031149;28;20038;-77
2023/01/28 06:55:28;;;;;;;52.38;21.15;;;;;;;;;;5012507;28;20029;-77
2023/01/28 06:57:53;;;;;;;50.60;20.80;;;;;;;;;;5033022;28;20025;-78
2023/01/28 07:00:19;;;;;;;51.42;21.15;;;;;;;;;;5032027;28;20036;-78
2023/01/28 07:02:44;;;;;;;51.78;21.80;;;;;;;;;;5030345;28;20061;-77
2023/01/28 07:05:10;;;;;;;54.78;20.58;;;;;;;;;;5031167;28;20041;-78
2023/01/28 07:07:35;;;;;;;46.40;18.48;;;;;;;;;;5046311;28;20030;-78
2023/01/28 07:10:01;;;;;;;58.33;22.08;;;;;;;;;;5042136;28;20033;-77
2023/01/28 07:12:26;;;;;;;53.72;23.15;;;;;;;;;;5014080;28;20031;-77
2023/01/28 07:14:52;;;;;;;57.05;22.17;;;;;;;;;;5029625;28;20493;-78
2023/01/28 07:17:34;;;;;;;48.88;21.08;;;;;;;;;;5025493;28;20571;-78
2023/01/28 07:20:00;;;;;;;46.65;19.42;;;;;;;;;;5031937;28;20042;-77
2023/01/28 07:22:25;;;;;;;47.40;20.52;;;;;;;;;;5034503;28;20024;-77
2023/01/28 07:24:53;;;;;;;50.83;21.88;;;;;;;;;;5033876;28;20037;-78
2023/01/28 07:27:19;;;;;;;50.60;21.83;;;;;;;;;;5032694;28;20123;-78
2023/01/28 07:29:44;;;;;;;50.40;20.70;;;;;;;;;;5049303;28;20124;-77
2023/01/28 07:32:10;;;;;;;50.35;21.00;;;;;;;;;;5046216;28;20052;-77
2023/01/28 07:34:38;;;;;;;50.13;21.75;;;;;;;;;;5029139;28;20408;-77
2023/01/28 07:37:05;;;;;;;46.08;20.45;;;;;;;;;;5045910;28;20082;-79
2023/01/28 07:39:31;;;;;;;46.83;20.27;;;;;;;;;;5035998;28;20033;-78
2023/01/28 07:41:56;;;;;;;50.20;21.60;;;;;;;;;;5047658;28;20033;-78
2023/01/28 07:44:35;;;;;;;45.50;20.40;;;;;;;;;;5011676;28;20061;-76
2023/01/28 07:47:01;;;;;;;48.60;21.05;;;;;;;;;;5031106;28;20037;-76
2023/01/28 07:49:26;;;;;;;49.28;20.85;;;;;;;;;;5024113;28;20112;-76
2023/01/28 07:51:52;;;;;;;48.67;21.17;;;;;;;;;;5031700;28;20618;-76
2023/01/28 07:54:17;;;;;;;42.67;19.70;;;;;;;;;;5029890;28;20025;-76
2023/01/28 07:56:43;;;;;;;50.45;21.65;;;;;;;;;;5034323;28;20122;-75
2023/01/28 07:59:08;;;;;;;50.53;21.15;;;;;;;;;;5030600;28;20037;-76
2023/01/28 08:01:34;;;;;;;46.95;20.70;;;;;;;;;;5032058;28;20030;-77
2023/01/28 08:03:59;;;;;;;50.15;19.23;;;;;;;;;;5039463;28;20026;-75
2023/01/28 08:06:27;;;;;;;46.58;20.25;;;;;;;;;;5038115;28;20038;-76
2023/01/28 08:08:52;;;;;;;36.72;17.23;;;;;;;;;;5013423;28;20033;-76
2023/01/28 08:11:18;;;;;;;39.92;17.02;;;;;;;;;;5030393;28;20037;-76
2023/01/28 08:13:43;;;;;;;33.38;16.50;;;;;;;;;;5030828;28;20051;-78
2023/01/28 08:16:08;;;;;;;35.08;16.13;;;;;;;;;;5032016;28;20448;-78
2023/01/28 08:18:34;;;;;;;34.97;16.45;;;;;;;;;;5036317;28;20030;-78
2023/01/28 08:20:59;;;;;;;33.15;15.48;;;;;;;;;;5022609;28;20053;-78
2023/01/28 08:23:29;;;;;;;34.13;15.60;;;;;;;;;;5026166;28;20037;-77
2023/01/28 08:25:56;;;;;;;32.85;15.77;;;;;;;;;;5038960;28;20056;-77
2023/01/28 08:28:22;;;;;;;34.13;16.02;;;;;;;;;;5019639;28;20400;-77
2023/01/28 08:30:47;;;;;;;39.83;17.95;;;;;;;;;;5031121;28;20037;-77
2023/01/28 08:33:13;;;;;;;33.95;16.38;;;;;;;;;;5031034;28;20113;-76
2023/01/28 08:35:39;;;;;;;35.13;17.50;;;;;;;;;;5029455;28;20167;-76
2023/01/28 08:38:05;;;;;;;38.42;18.55;;;;;;;;;;5028731;28;20037;-77
2023/01/28 08:40:30;;;;;;;;;;;;;;;;;;5028727;28;20037;-76
2023/01/28 08:42:55;;;;;;;38.58;17.02;;;;;;;;;;5036748;28;19915;-77
2023/01/28 08:45:21;;;;;;;40.50;19.05;;;;;;;;;;5020722;28;20064;-77
2023/01/28 08:47:48;;;;;;;47.88;21.35;;;;;;;;;;5029145;28;20038;-77
2023/01/28 08:50:14;;;;;;;53.00;23.42;;;;;;;;;;5043049;28;20041;-78
2023/01/28 08:52:41;;;;;;;47.42;21.45;;;;;;;;;;5030813;28;20076;-77
2023/01/28 08:55:06;;;;;;;49.22;22.38;;;;;;;;;;5028035;28;20041;-76
2023/01/28 08:57:32;;;;;;;51.97;21.15;;;;;;;;;;5012278;28;20030;-76
2023/01/28 08:59:57;;;;;;;46.22;20.05;;;;;;;;;;5012549;28;20067;-77
2023/01/28 09:02:23;;;;;;;45.08;18.95;;;;;;;;;;5021414;28;20026;-78
2023/01/28 09:04:48;;;;;;;42.58;19.75;;;;;;;;;;5045729;28;20136;-77
2023/01/28 09:07:14;;;;;;;39.58;18.60;;;;;;;;;;5013181;28;20064;-78
2023/01/28 09:09:39;;;;;;;43.90;18.42;;;;;;;;;;5029915;28;20044;-76
2023/01/28 09:12:07;;;;;;;42.78;19.17;;;;;;;;;;5041942;28;20047;-77
2023/01/28 09:14:32;;;;;;;38.35;17.60;;;;;;;;;;5023257;28;20423;-76
2023/01/28 09:16:58;;;;;;;40.03;16.10;;;;;;;;;;5026034;28;20107;-76
2023/01/28 09:19:23;;;;;;;35.17;15.85;;;;;;;;;;5033568;28;20033;-76
2023/01/28 09:21:49;;;;;;;33.20;15.93;;;;;;;;;;5040108;28;20079;-75
2023/01/28 09:24:14;;;;;;;41.92;20.42;;;;;;;;;;5029588;28;20124;-75
2023/01/28 09:26:40;;;;;;;35.97;17.33;;;;;;;;;;5030579;28;20037;-75
2023/01/28 09:29:05;;;;;;;32.83;15.35;;;;;;;;;;5033434;28;20546;-76
2023/01/28 09:31:31;;;;;;;32.80;15.60;;;;;;;;;;5029987;28;20025;-76
2023/01/28 09:33:56;;;;;;;32.40;15.52;;;;;;;;;;5028745;28;20048;-76
2023/01/28 09:36:22;;;;;;;36.22;15.52;;;;;;;;;;5029974;28;20030;-76
2023/01/28 09:38:47;;;;;;;32.90;15.25;;;;;;;;;;5028468;28;20144;-76
2023/01/28 09:41:26;;;;;;;31.50;14.85;;;;;;;;;;5044571;28;20025;-77
2023/01/28 09:43:58;;;;;;;36.35;16.33;;;;;;;;;;5026204;28;20480;-76
2023/01/28 09:46:26;;;;;;;34.90;15.75;;;;;;;;;;5031390;28;20037;-76
2023/01/28 09:48:51;;;;;;;29.90;14.40;;;;;;;;;;5029027;28;20514;-76
2023/01/28 09:51:17;;;;;;;27.50;13.70;;;;;;;;;;5032845;28;20033;-75
2023/01/28 09:53:43;;;;;;;28.48;13.48;;;;;;;;;;5029151;28;20079;-76
2023/01/28 09:56:13;;;;;;;31.98;13.18;;;;;;;;;;5028809;28;20116;-75
2023/01/28 09:58:40;;;;;;;29.27;14.18;;;;;;;;;;5028573;28;20037;-74
2023/01/28 10:01:16;;;;;;;29.33;13.82;;;;;;;;;;5028701;28;20034;-75
2023/01/28 10:03:57;;;;;;;28.77;14.10;;;;;;;;;;5027465;28;20029;-76
2023/01/28 10:06:26;;;;;;;31.60;14.07;;;;;;;;;;5028510;28;20041;-75
2023/01/28 10:09:10;;;;;;;33.78;15.88;;;;;;;;;;5034366;28;20507;-75
2023/01/28 10:11:42;;;;;;;34.10;15.32;;;;;;;;;;5044800;28;20048;-76
2023/01/28 10:14:11;;;;;;;35.90;16.95;;;;;;;;;;5028325;28;20128;-74
2023/01/28 10:16:41;;;;;;;34.25;15.15;;;;;;;;;;5028317;28;20076;-75
2023/01/28 10:19:09;;;;;;;32.45;15.32;;;;;;;;;;5031072;28;20120;-75
2023/01/28 10:21:40;;;;;;;39.08;16.80;;;;;;;;;;5015714;28;20121;-74
2023/01/28 10:24:10;;;;;;;37.38;16.88;;;;;;;;;;5032602;28;20575;-76
2023/01/28 10:26:37;;;;;;;34.40;16.45;;;;;;;;;;5012459;28;20034;-75
2023/01/28 10:29:12;;;;;;;36.95;17.40;;;;;;;;;;5025546;28;20045;-75
2023/01/28 10:31:39;;;;;;;37.33;17.13;;;;;;;;;;5027417;28;20079;-76
2023/01/28 10:34:04;;;;;;;40.90;17.77;;;;;;;;;;5038604;28;20116;-75
2023/01/28 10:36:30;;;;;;;41.15;17.10;;;;;;;;;;5032073;28;20527;-75
2023/01/28 10:38:55;;;;;;;36.88;17.60;;;;;;;;;;5033844;28;20039;-75
2023/01/28 10:41:21;;;;;;;35.55;16.83;;;;;;;;;;5032294;28;20040;-75
2023/01/28 10:43:46;;;;;;;40.30;16.30;;;;;;;;;;5039435;28;20472;-75
2023/01/28 10:46:16;;;;;;;31.00;15.63;;;;;;;;;;5015700;28;20038;-75
2023/01/28 10:48:54;;;;;;;31.55;15.30;;;;;;;;;;5025932;28;20057;-76
2023/01/28 10:51:28;;;;;;;34.42;16.13;;;;;;;;;;5029623;28;20038;-76
2023/01/28 10:53:54;;;;;;;33.10;15.27;;;;;;;;;;5018521;28;20087;-75
2023/01/28 10:56:24;;;;;;;33.78;15.65;;;;;;;;;;5037907;28;20037;-78
2023/01/28 10:58:53;;;;;;;30.50;14.38;;;;;;;;;;5035329;28;20117;-74
2023/01/28 11:01:18;;;;;;;26.25;12.95;;;;;;;;;;5031868;28;20056;-76
2023/01/28 11:03:54;;;;;;;24.77;12.77;;;;;;;;;;5031847;28;20061;-76
2023/01/28 11:06:24;;;;;;;26.37;12.73;;;;;;;;;;5031513;28;20150;-75
2023/01/28 11:08:49;;;;;;;28.80;13.52;;;;;;;;;;5033090;28;20042;-75
2023/01/28 11:11:15;;;;;;;25.10;12.73;;;;;;;;;;5048137;28;20037;-76
2023/01/28 11:13:48;;;;;;;26.42;13.32;;;;;;;;;;5032618;28;20037;-75
2023/01/28 11:16:15;;;;;;;30.55;13.40;;;;;;;;;;5025392;28;20058;-76
2023/01/28 11:18:48;;;;;;;28.05;13.70;;;;;;;;;;5027592;28;20038;-77
2023/01/28 11:21:15;;;;;;;28.65;13.43;;;;;;;;;;5032898;28;20079;-76
2023/01/28 11:23:46;;;;;;;27.20;14.30;;;;;;;;;;5031141;28;20036;-75
2023/01/28 11:26:16;;;;;;;28.27;13.93;;;;;;;;;;5039490;28;20128;-75
2023/01/28 11:28:41;;;;;;;28.10;14.65;;;;;;;;;;5027149;28;20033;-74
2023/01/28 11:31:07;;;;;;;31.73;15.05;;;;;;;;;;5031199;28;20040;-76
2023/01/28 11:33:35;;;;;;;27.50;14.13;;;;;;;;;;5031558;28;20025;-76
2023/01/28 11:36:27;;;;;;;28.92;14.52;;;;;;;;;;5032598;28;20045;-75
2023/01/28 11:39:04;;;;;;;28.42;13.35;;;;;;;;;;5031967;28;20045;-75
2023/01/28 11:41:33;;;;;;;28.35;13.65;;;;;;;;;;5031225;28;20040;-75
2023/01/28 11:43:59;;;;;;;30.70;15.35;;;;;;;;;;5037662;28;20567;-75
2023/01/28 11:46:51;;;;;;;31.15;14.77;;;;;;;;;;5032391;28;20064;-75
2023/01/28 11:49:20;;;;;;;33.20;16.83;;;;;;;;;;5043317;28;20049;-75
2023/01/28 11:51:45;;;;;;;32.15;15.43;;;;;;;;;;5052836;28;20029;-75
2023/01/28 11:54:11;;;;;;;33.67;14.95;;;;;;;;;;5031005;28;20056;-75
2023/01/28 11:56:36;;;;;;;30.27;15.02;;;;;;;;;;5047388;28;20037;-76
2023/01/28 11:59:02;;;;;;;36.15;17.85;;;;;;;;;;5030801;28;20029;-75
2023/01/28 12:01:42;;;;;;;31.83;14.52;;;;;;;;;;5033086;28;20080;-76
2023/01/28 12:04:23;;;;;;;33.30;15.63;;;;;;;;;;5030931;28;20176;-77
2023/01/28 12:06:57;;;;;;;34.45;16.15;;;;;;;;;;5046898;28;20037;-74
2023/01/28 12:09:41;;;;;;;31.65;15.48;;;;;;;;;;5030914;28;20128;-76
2023/01/28 12:12:10;;;;;;;32.75;15.43;;;;;;;;;;5029141;28;20041;-76
2023/01/28 12:14:41;;;;;;;34.72;16.25;;;;;;;;;;5030646;28;20029;-76
2023/01/28 12:17:06;;;;;;;33.28;16.88;;;;;;;;;;5026954;28;20080;-76
2023/01/28 12:19:32;;;;;;;31.33;15.75;;;;;;;;;;5031651;28;20061;-76
2023/01/28 12:22:17;;;;;;;30.05;15.77;;;;;;;;;;5031624;28;20493;-76
2023/01/28 12:24:47;;;;;;;29.73;14.80;;;;;;;;;;5041771;28;20041;-77
2023/01/28 12:27:33;;;;;;;29.90;14.57;;;;;;;;;;5003252;28;20397;-76
2023/01/28 12:30:24;;;;;;;31.02;14.77;;;;;;;;;;5030841;28;20477;-76
2023/01/28 12:33:07;;;;;;;32.58;16.75;;;;;;;;;;5027840;28;20073;-76
2023/01/28 12:35:49;;;;;;;29.73;15.50;;;;;;;;;;5029857;28;20041;-76
2023/01/28 12:38:39;;;;;;;33.78;15.70;;;;;;;;;;5029923;28;20037;-76
2023/01/28 12:41:15;;;;;;;34.17;17.17;;;;;;;;;;5009962;28;20579;-77
2023/01/28 12:43:50;;;;;;;31.38;14.75;;;;;;;;;;5021737;28;20037;-74
2023/01/28 12:46:34;;;;;;;26.98;12.95;;;;;;;;;;5029408;28;20045;-75
2023/01/28 12:49:04;;;;;;;27.90;13.45;;;;;;;;;;5031057;28;20455;-76
2023/01/28 12:51:32;;;;;;;29.38;14.45;;;;;;;;;;5029743;28;20533;-75
2023/01/28 12:54:03;;;;;;;29.63;14.50;;;;;;;;;;5029628;28;20042;-75
2023/01/28 12:56:30;;;;;;;33.42;15.10;;;;;;;;;;5027315;28;20046;-77
2023/01/28 12:59:01;;;;;;;32.88;14.63;;;;;;;;;;5029813;28;20519;-76
2023/01/28 13:01:34;;;;;;;34.35;16.58;;;;;;;;;;5025700;28;20060;-76
2023/01/28 13:04:05;;;;;;;34.20;15.55;;;;;;;;;;5027803;28;20048;-76
2023/01/28 13:06:31;;;;;;;37.15;15.52;;;;;;;;;;5030508;28;20515;-75
2023/01/28 13:08:58;;;;;;;36.40;14.90;;;;;;;;;;5043442;28;20101;-75
2023/01/28 13:11:23;;;;;;;32.90;14.98;;;;;;;;;;5024854;28;20037;-75
2023/01/28 13:13:49;;;;;;;90.95;42.47;;;;;;;;;;5027256;28;20030;-75
2023/01/28 13:16:15;;;;;;;55.78;22.23;;;;;;;;;;5013581;28;20046;-76
2023/01/28 13:18:47;;;;;;;40.70;17.83;;;;;;;;;;5029350;28;20040;-75
2023/01/28 13:21:16;;;;;;;36.30;15.90;;;;;;;;;;5028231;28;20407;-74
2023/01/28 13:23:45;;;;;;;36.65;16.08;;;;;;;;;;5028382;28;20373;-76
2023/01/28 13:26:31;;;;;;;33.40;15.23;;;;;;;;;;5030318;28;20116;-76
2023/01/28 13:29:07;;;;;;;30.42;13.90;;;;;;;;;;5029750;28;20045;-76
2023/01/28 13:31:36;;;;;;;35.30;14.93;;;;;;;;;;5035751;28;20048;-76
2023/01/28 13:34:02;;;;;;;31.52;14.32;;;;;;;;;;5026274;28;20511;-74
2023/01/28 13:36:32;;;;;;;26.75;13.88;;;;;;;;;;5029881;28;20033;-75
2023/01/28 13:39:04;;;;;;;31.35;13.98;;;;;;;;;;5028548;28;20037;-76
2023/01/28 13:41:42;;;;;;;33.00;14.95;;;;;;;;;;5029647;28;20033;-76
2023/01/28 13:44:39;;;;;;;28.85;14.20;;;;;;;;;;5029484;28;20542;-76
2023/01/28 13:47:05;;;;;;;34.03;15.70;;;;;;;;;;5027394;28;20945;-75
2023/01/28 13:49:33;;;;;;;27.45;14.50;;;;;;;;;;5029880;28;20033;-75
2023/01/28 13:52:00;;;;;;;31.45;14.73;;;;;;;;;;5040793;28;20041;-75
2023/01/28 13:54:26;;;;;;;31.45;15.43;;;;;;;;;;5028205;28;20775;-75
2023/01/28 13:57:02;;;;;;;32.80;15.30;;;;;;;;;;5038415;28;20030;-75
2023/01/28 13:59:30;;;;;;;37.97;16.02;;;;;;;;;;5029480;28;20095;-75
2023/01/28 14:02:05;;;;;;;34.17;15.38;;;;;;;;;;5043574;28;20033;-75
2023/01/28 14:04:30;;;;;;;37.63;17.05;;;;;;;;;;5040913;28;20041;-75
2023/01/28 14:06:56;;;;;;;38.97;18.88;;;;;;;;;;5029390;28;20028;-76
2023/01/28 14:09:40;;;;;;;40.88;17.35;;;;;;;;;;5044818;28;20037;-75
2023/01/28 14:12:06;;;;;;;36.75;16.23;;;;;;;;;;5029083;28;20029;-75
2023/01/28 14:14:31;;;;;;;35.00;15.93;;;;;;;;;;5026398;28;20032;-75
2023/01/28 14:17:06;;;;;;;36.03;15.57;;;;;;;;;;5026568;28;20501;-75
2023/01/28 14:19:34;;;;;;;35.92;15.13;;;;;;;;;;5009967;28;20053;-76
2023/01/28 14:22:05;;;;;;;35.72;15.20;;;;;;;;;;5028275;28;20021;-75
2023/01/28 14:24:30;;;;;;;54.30;22.05;;;;;;;;;;5044968;28;20067;-75
2023/01/28 14:26:59;;;;;;;38.90;15.90;;;;;;;;;;5029124;28;20456;-76
2023/01/28 14:29:24;;;;;;;37.90;15.60;;;;;;;;;;5029778;28;20083;-76
2023/01/28 14:31:50;;;;;;;38.00;14.88;;;;;;;;;;5039027;28;20025;-76
2023/01/28 14:34:21;;;;;;;32.97;14.40;;;;;;;;;;5029659;28;20435;-76
2023/01/28 14:36:47;;;;;;;41.58;16.80;;;;;;;;;;5043087;28;20037;-75
2023/01/28 14:39:12;;;;;;;;;;;;;;;;;;5026017;28;20025;-76
2023/01/28 14:41:38;;;;;;;45.80;14.95;;;;;;;;;;5030140;28;20323;-75
2023/01/28 14:44:05;;;;;;;45.15;16.35;;;;;;;;;;5027254;28;20525;-75
2023/01/28 14:46:45;;;;;;;41.42;15.73;;;;;;;;;;5028078;28;20035;-76
2023/01/28 14:49:16;;;;;;;41.80;15.68;;;;;;;;;;5027037;28;20112;-76
2023/01/28 14:52:01;;;;;;;38.70;15.50;;;;;;;;;;5040160;28;20037;-76
2023/01/28 14:54:45;;;;;;;41.63;16.08;;;;;;;;;;5041734;28;20045;-75
2023/01/28 14:57:23;;;;;;;36.67;14.57;;;;;;;;;;5023315;28;20038;-76
2023/01/28 14:59:50;;;;;;;41.25;16.00;;;;;;;;;;5027897;28;20075;-75
2023/01/28 15:02:25;;;;;;;34.47;16.30;;;;;;;;;;5013161;28;20143;-76
2023/01/28 15:04:51;;;;;;;37.97;16.55;;;;;;;;;;5047485;28;20040;-76
2023/01/28 15:07:25;;;;;;;40.22;15.27;;;;;;;;;;5046547;28;20433;-76